sensor_id;sensor_type;location;lat;lon;timestamp;P1;durP1;ratioP1;P2;durP2;ratioP2
3891;SDS011;1961;48.194;16.370;2023-05-07T00:00:49;41.57;;;5.60;;
3891;SDS011;1961;48.194;16.370;2023-05-07T00:03:16;41.80;;;5.93;;
3891;SDS011;1961;48.194;16.370;2023-05-07T00:05:44;44.40;;;6.20;;
3891;SDS011;1961;48.194;16.370;2023-05-07T00:08:11;45.80;;;6.03;;
3891;SDS011;1961;48.194;16.370;2023-05-07T00:10:37;41.30;;;5.93;;
3891;SDS011;1961;48.194;16.370;2023-05-07T00:13:04;41.97;;;5.73;;
3891;SDS011;1961;48.194;16.370;2023-05-07T00:15:30;41.50;;;5.40;;
3891;SDS011;1961;48.194;16.370;2023-05-07T00:17:56;42.37;;;5.93;;
3891;SDS011;1961;48.194;16.370;2023-05-07T00:20:24;42.37;;;6.37;;
3891;SDS011;1961;48.194;16.370;2023-05-07T00:22:50;42.47;;;6.13;;
3891;SDS011;1961;48.194;16.370;2023-05-07T00:25:17;43.03;;;5.83;;
3891;SDS011;1961;48.194;16.370;2023-05-07T00:27:45;41.70;;;5.80;;
3891;SDS011;1961;48.194;16.370;2023-05-07T00:30:11;41.87;;;6.03;;
3891;SDS011;1961;48.194;16.370;2023-05-07T00:32:38;43.87;;;5.80;;
3891;SDS011;1961;48.194;16.370;2023-05-07T00:35:05;41.90;;;5.70;;
3891;SDS011;1961;48.194;16.370;2023-05-07T00:37:31;42.00;;;6.30;;
3891;SDS011;1961;48.194;16.370;2023-05-07T00:39:58;42.40;;;6.00;;
3891;SDS011;1961;48.194;16.370;2023-05-07T00:42:24;42.20;;;6.10;;
3891;SDS011;1961;48.194;16.370;2023-05-07T00:44:51;43.97;;;6.47;;
3891;SDS011;1961;48.194;16.370;2023-05-07T00:47:17;44.00;;;6.43;;
3891;SDS011;1961;48.194;16.370;2023-05-07T00:49:44;41.67;;;5.90;;
3891;SDS011;1961;48.194;16.370;2023-05-07T00:52:11;41.50;;;5.60;;
3891;SDS011;1961;48.194;16.370;2023-05-07T00:54:39;42.20;;;5.90;;
3891;SDS011;1961;48.194;16.370;2023-05-07T00:57:06;42.40;;;6.23;;
3891;SDS011;1961;48.194;16.370;2023-05-07T00:59:32;44.20;;;6.50;;
3891;SDS011;1961;48.194;16.370;2023-05-07T01:01:59;42.40;;;6.10;;
3891;SDS011;1961;48.194;16.370;2023-05-07T01:04:25;41.97;;;6.60;;
3891;SDS011;1961;48.194;16.370;2023-05-07T01:06:52;42.33;;;6.40;;
3891;SDS011;1961;48.194;16.370;2023-05-07T01:09:19;42.03;;;6.00;;
3891;SDS011;1961;48.194;16.370;2023-05-07T01:11:47;41.57;;;6.37;;
3891;SDS011;1961;48.194;16.370;2023-05-07T01:14:13;42.90;;;6.27;;
3891;SDS011;1961;48.194;16.370;2023-05-07T01:16:39;43.47;;;5.87;;
3891;SDS011;1961;48.194;16.370;2023-05-07T01:19:07;42.50;;;6.20;;
3891;SDS011;1961;48.194;16.370;2023-05-07T01:21:35;42.10;;;6.07;;
3891;SDS011;1961;48.194;16.370;2023-05-07T01:24:03;41.70;;;5.90;;
3891;SDS011;1961;48.194;16.370;2023-05-07T01:26:30;42.07;;;5.27;;
3891;SDS011;1961;48.194;16.370;2023-05-07T01:28:56;41.00;;;5.03;;
3891;SDS011;1961;48.194;16.370;2023-05-07T01:31:23;40.70;;;5.40;;
3891;SDS011;1961;48.194;16.370;2023-05-07T01:33:50;41.53;;;5.23;;
3891;SDS011;1961;48.194;16.370;2023-05-07T01:36:18;40.50;;;5.00;;
3891;SDS011;1961;48.194;16.370;2023-05-07T01:38:45;44.60;;;5.20;;
3891;SDS011;1961;48.194;16.370;2023-05-07T01:41:11;43.23;;;5.60;;
3891;SDS011;1961;48.194;16.370;2023-05-07T01:43:39;43.20;;;5.33;;
3891;SDS011;1961;48.194;16.370;2023-05-07T01:46:06;40.97;;;5.43;;
3891;SDS011;1961;48.194;16.370;2023-05-07T01:48:32;40.50;;;5.07;;
3891;SDS011;1961;48.194;16.370;2023-05-07T01:50:59;41.67;;;5.40;;
3891;SDS011;1961;48.194;16.370;2023-05-07T01:53:27;42.10;;;5.70;;
3891;SDS011;1961;48.194;16.370;2023-05-07T01:55:53;41.50;;;5.73;;
3891;SDS011;1961;48.194;16.370;2023-05-07T01:58:19;41.03;;;5.53;;
3891;SDS011;1961;48.194;16.370;2023-05-07T02:00:46;44.10;;;5.30;;
3891;SDS011;1961;48.194;16.370;2023-05-07T02:03:12;40.90;;;5.40;;
3891;SDS011;1961;48.194;16.370;2023-05-07T02:05:38;41.30;;;5.53;;
3891;SDS011;1961;48.194;16.370;2023-05-07T02:08:04;41.60;;;5.47;;
3891;SDS011;1961;48.194;16.370;2023-05-07T02:10:30;41.70;;;5.70;;
3891;SDS011;1961;48.194;16.370;2023-05-07T02:12:56;43.80;;;6.00;;
3891;SDS011;1961;48.194;16.370;2023-05-07T02:15:23;42.07;;;5.83;;
3891;SDS011;1961;48.194;16.370;2023-05-07T02:18:04;40.77;;;5.10;;
3891;SDS011;1961;48.194;16.370;2023-05-07T02:20:31;41.53;;;5.20;;
3891;SDS011;1961;48.194;16.370;2023-05-07T02:22:58;44.53;;;6.10;;
3891;SDS011;1961;48.194;16.370;2023-05-07T02:25:25;43.77;;;5.60;;
3891;SDS011;1961;48.194;16.370;2023-05-07T02:27:51;40.97;;;5.10;;
3891;SDS011;1961;48.194;16.370;2023-05-07T02:30:18;43.47;;;6.20;;
3891;SDS011;1961;48.194;16.370;2023-05-07T02:32:46;41.50;;;5.27;;
3891;SDS011;1961;48.194;16.370;2023-05-07T02:35:12;42.63;;;5.53;;
3891;SDS011;1961;48.194;16.370;2023-05-07T02:37:38;41.33;;;5.40;;
3891;SDS011;1961;48.194;16.370;2023-05-07T02:40:04;43.90;;;6.30;;
3891;SDS011;1961;48.194;16.370;2023-05-07T02:42:31;41.77;;;5.70;;
3891;SDS011;1961;48.194;16.370;2023-05-07T02:44:57;42.20;;;6.00;;
3891;SDS011;1961;48.194;16.370;2023-05-07T02:47:23;41.67;;;5.87;;
3891;SDS011;1961;48.194;16.370;2023-05-07T02:49:52;41.57;;;5.50;;
3891;SDS011;1961;48.194;16.370;2023-05-07T02:52:18;43.20;;;5.93;;
3891;SDS011;1961;48.194;16.370;2023-05-07T02:54:44;43.27;;;7.10;;
3891;SDS011;1961;48.194;16.370;2023-05-07T02:57:11;46.60;;;6.30;;
3891;SDS011;1961;48.194;16.370;2023-05-07T02:59:37;43.00;;;5.83;;
3891;SDS011;1961;48.194;16.370;2023-05-07T03:02:03;42.53;;;6.37;;
3891;SDS011;1961;48.194;16.370;2023-05-07T03:04:29;41.87;;;6.27;;
3891;SDS011;1961;48.194;16.370;2023-05-07T03:06:55;41.40;;;5.83;;
3891;SDS011;1961;48.194;16.370;2023-05-07T03:09:22;42.13;;;6.00;;
3891;SDS011;1961;48.194;16.370;2023-05-07T03:11:48;41.60;;;5.80;;
3891;SDS011;1961;48.194;16.370;2023-05-07T03:14:17;43.30;;;6.67;;
3891;SDS011;1961;48.194;16.370;2023-05-07T03:16:43;43.60;;;6.20;;
3891;SDS011;1961;48.194;16.370;2023-05-07T03:19:09;41.50;;;6.10;;
3891;SDS011;1961;48.194;16.370;2023-05-07T03:21:35;43.90;;;6.90;;
3891;SDS011;1961;48.194;16.370;2023-05-07T03:24:02;43.10;;;6.73;;
3891;SDS011;1961;48.194;16.370;2023-05-07T03:26:28;43.67;;;6.80;;
3891;SDS011;1961;48.194;16.370;2023-05-07T03:28:54;42.87;;;6.90;;
3891;SDS011;1961;48.194;16.370;2023-05-07T03:31:20;42.50;;;6.93;;
3891;SDS011;1961;48.194;16.370;2023-05-07T03:33:50;42.60;;;6.90;;
3891;SDS011;1961;48.194;16.370;2023-05-07T03:36:17;45.50;;;8.80;;
3891;SDS011;1961;48.194;16.370;2023-05-07T03:38:43;42.90;;;6.90;;
3891;SDS011;1961;48.194;16.370;2023-05-07T03:41:09;44.30;;;7.57;;
3891;SDS011;1961;48.194;16.370;2023-05-07T03:43:35;42.80;;;7.13;;
3891;SDS011;1961;48.194;16.370;2023-05-07T03:46:01;44.73;;;7.50;;
3891;SDS011;1961;48.194;16.370;2023-05-07T03:48:28;44.10;;;7.97;;
3891;SDS011;1961;48.194;16.370;2023-05-07T03:50:54;45.10;;;7.73;;
3891;SDS011;1961;48.194;16.370;2023-05-07T03:53:20;43.73;;;7.83;;
3891;SDS011;1961;48.194;16.370;2023-05-07T03:55:46;45.00;;;8.20;;
3891;SDS011;1961;48.194;16.370;2023-05-07T03:58:12;44.23;;;8.37;;
3891;SDS011;1961;48.194;16.370;2023-05-07T04:00:38;47.03;;;9.33;;
3891;SDS011;1961;48.194;16.370;2023-05-07T04:03:05;43.90;;;8.50;;
3891;SDS011;1961;48.194;16.370;2023-05-07T04:05:31;44.60;;;8.50;;
3891;SDS011;1961;48.194;16.370;2023-05-07T04:07:58;46.97;;;9.37;;
3891;SDS011;1961;48.194;16.370;2023-05-07T04:10:25;44.67;;;9.27;;
3891;SDS011;1961;48.194;16.370;2023-05-07T04:12:51;46.90;;;9.17;;
3891;SDS011;1961;48.194;16.370;2023-05-07T04:15:17;45.93;;;9.77;;
3891;SDS011;1961;48.194;16.370;2023-05-07T04:17:43;46.10;;;9.37;;
3891;SDS011;1961;48.194;16.370;2023-05-07T04:20:10;46.00;;;10.40;;
3891;SDS011;1961;48.194;16.370;2023-05-07T04:22:36;47.13;;;11.03;;
3891;SDS011;1961;48.194;16.370;2023-05-07T04:25:03;49.70;;;12.00;;
3891;SDS011;1961;48.194;16.370;2023-05-07T04:27:29;53.70;;;12.30;;
3891;SDS011;1961;48.194;16.370;2023-05-07T04:29:55;54.07;;;14.50;;
3891;SDS011;1961;48.194;16.370;2023-05-07T04:32:22;49.10;;;13.70;;
3891;SDS011;1961;48.194;16.370;2023-05-07T04:34:50;53.37;;;15.30;;
3891;SDS011;1961;48.194;16.370;2023-05-07T04:37:16;51.50;;;14.90;;
3891;SDS011;1961;48.194;16.370;2023-05-07T04:39:42;54.20;;;16.67;;
3891;SDS011;1961;48.194;16.370;2023-05-07T04:42:08;56.23;;;19.07;;
3891;SDS011;1961;48.194;16.370;2023-05-07T04:44:35;56.20;;;17.53;;
3891;SDS011;1961;48.194;16.370;2023-05-07T04:47:02;52.97;;;16.93;;
3891;SDS011;1961;48.194;16.370;2023-05-07T04:49:28;54.77;;;18.10;;
3891;SDS011;1961;48.194;16.370;2023-05-07T04:51:54;55.47;;;18.60;;
3891;SDS011;1961;48.194;16.370;2023-05-07T04:54:20;54.87;;;18.17;;
3891;SDS011;1961;48.194;16.370;2023-05-07T04:56:47;56.00;;;17.57;;
3891;SDS011;1961;48.194;16.370;2023-05-07T04:59:13;56.37;;;18.43;;
3891;SDS011;1961;48.194;16.370;2023-05-07T05:01:39;56.30;;;18.20;;
3891;SDS011;1961;48.194;16.370;2023-05-07T05:04:05;54.07;;;17.40;;
3891;SDS011;1961;48.194;16.370;2023-05-07T05:06:32;54.37;;;17.73;;
3891;SDS011;1961;48.194;16.370;2023-05-07T05:08:58;56.77;;;18.67;;
3891;SDS011;1961;48.194;16.370;2023-05-07T05:11:24;54.60;;;17.77;;
3891;SDS011;1961;48.194;16.370;2023-05-07T05:13:50;56.13;;;19.40;;
3891;SDS011;1961;48.194;16.370;2023-05-07T05:16:17;56.30;;;20.60;;
3891;SDS011;1961;48.194;16.370;2023-05-07T05:18:43;58.70;;;20.23;;
3891;SDS011;1961;48.194;16.370;2023-05-07T05:21:09;58.33;;;22.00;;
3891;SDS011;1961;48.194;16.370;2023-05-07T05:23:35;58.60;;;21.20;;
3891;SDS011;1961;48.194;16.370;2023-05-07T05:26:01;58.57;;;22.63;;
3891;SDS011;1961;48.194;16.370;2023-05-07T05:28:28;62.43;;;22.50;;
3891;SDS011;1961;48.194;16.370;2023-05-07T05:30:55;63.63;;;22.53;;
3891;SDS011;1961;48.194;16.370;2023-05-07T05:33:21;63.77;;;24.90;;
3891;SDS011;1961;48.194;16.370;2023-05-07T05:35:47;64.07;;;23.97;;
3891;SDS011;1961;48.194;16.370;2023-05-07T05:38:13;63.70;;;24.43;;
3891;SDS011;1961;48.194;16.370;2023-05-07T05:40:39;66.70;;;25.20;;
3891;SDS011;1961;48.194;16.370;2023-05-07T05:43:06;62.70;;;24.20;;
3891;SDS011;1961;48.194;16.370;2023-05-07T05:45:32;63.50;;;24.60;;
3891;SDS011;1961;48.194;16.370;2023-05-07T05:47:58;62.40;;;23.73;;
3891;SDS011;1961;48.194;16.370;2023-05-07T05:50:25;65.27;;;24.37;;
3891;SDS011;1961;48.194;16.370;2023-05-07T05:52:51;66.90;;;24.70;;
3891;SDS011;1961;48.194;16.370;2023-05-07T05:55:17;61.30;;;23.93;;
3891;SDS011;1961;48.194;16.370;2023-05-07T05:57:43;61.30;;;23.80;;
3891;SDS011;1961;48.194;16.370;2023-05-07T06:00:10;60.93;;;22.20;;
3891;SDS011;1961;48.194;16.370;2023-05-07T06:02:36;61.00;;;22.47;;
3891;SDS011;1961;48.194;16.370;2023-05-07T06:05:03;61.87;;;23.57;;
3891;SDS011;1961;48.194;16.370;2023-05-07T06:07:29;62.13;;;23.60;;
3891;SDS011;1961;48.194;16.370;2023-05-07T06:09:55;57.93;;;22.20;;
3891;SDS011;1961;48.194;16.370;2023-05-07T06:12:22;62.07;;;23.30;;
3891;SDS011;1961;48.194;16.370;2023-05-07T06:14:48;64.47;;;22.80;;
3891;SDS011;1961;48.194;16.370;2023-05-07T06:17:14;60.17;;;22.43;;
3891;SDS011;1961;48.194;16.370;2023-05-07T06:19:40;61.90;;;22.83;;
3891;SDS011;1961;48.194;16.370;2023-05-07T06:22:06;61.53;;;22.60;;
3891;SDS011;1961;48.194;16.370;2023-05-07T06:24:33;63.50;;;24.20;;
3891;SDS011;1961;48.194;16.370;2023-05-07T06:26:59;63.27;;;24.20;;
3891;SDS011;1961;48.194;16.370;2023-05-07T06:29:25;62.13;;;23.60;;
3891;SDS011;1961;48.194;16.370;2023-05-07T06:31:54;60.97;;;22.67;;
3891;SDS011;1961;48.194;16.370;2023-05-07T06:34:20;63.30;;;24.40;;
3891;SDS011;1961;48.194;16.370;2023-05-07T06:36:47;60.43;;;22.80;;
3891;SDS011;1961;48.194;16.370;2023-05-07T06:39:13;65.17;;;23.40;;
3891;SDS011;1961;48.194;16.370;2023-05-07T06:41:39;62.23;;;22.97;;
3891;SDS011;1961;48.194;16.370;2023-05-07T06:44:05;60.97;;;23.10;;
3891;SDS011;1961;48.194;16.370;2023-05-07T06:46:31;61.43;;;24.27;;
3891;SDS011;1961;48.194;16.370;2023-05-07T06:48:58;62.47;;;21.70;;
3891;SDS011;1961;48.194;16.370;2023-05-07T06:51:24;61.17;;;21.50;;
3891;SDS011;1961;48.194;16.370;2023-05-07T06:53:50;60.87;;;23.30;;
3891;SDS011;1961;48.194;16.370;2023-05-07T06:56:16;60.70;;;22.60;;
3891;SDS011;1961;48.194;16.370;2023-05-07T06:58:43;65.17;;;23.80;;
3891;SDS011;1961;48.194;16.370;2023-05-07T07:01:09;64.40;;;23.07;;
3891;SDS011;1961;48.194;16.370;2023-05-07T07:03:35;59.97;;;22.40;;
3891;SDS011;1961;48.194;16.370;2023-05-07T07:06:01;64.03;;;23.83;;
3891;SDS011;1961;48.194;16.370;2023-05-07T07:08:28;65.63;;;23.57;;
3891;SDS011;1961;48.194;16.370;2023-05-07T07:10:54;62.10;;;23.93;;
3891;SDS011;1961;48.194;16.370;2023-05-07T07:13:21;60.33;;;23.10;;
3891;SDS011;1961;48.194;16.370;2023-05-07T07:15:47;62.27;;;22.63;;
3891;SDS011;1961;48.194;16.370;2023-05-07T07:18:13;65.57;;;23.80;;
3891;SDS011;1961;48.194;16.370;2023-05-07T07:20:39;61.20;;;24.23;;
3891;SDS011;1961;48.194;16.370;2023-05-07T07:23:05;60.97;;;23.10;;
3891;SDS011;1961;48.194;16.370;2023-05-07T07:25:31;62.67;;;22.97;;
3891;SDS011;1961;48.194;16.370;2023-05-07T07:27:58;61.20;;;23.50;;
3891;SDS011;1961;48.194;16.370;2023-05-07T07:30:24;58.87;;;22.37;;
3891;SDS011;1961;48.194;16.370;2023-05-07T07:32:51;61.10;;;23.73;;
3891;SDS011;1961;48.194;16.370;2023-05-07T07:35:18;63.43;;;22.30;;
3891;SDS011;1961;48.194;16.370;2023-05-07T07:37:44;60.43;;;22.50;;
3891;SDS011;1961;48.194;16.370;2023-05-07T07:40:11;61.90;;;21.47;;
3891;SDS011;1961;48.194;16.370;2023-05-07T07:42:37;60.77;;;22.27;;
3891;SDS011;1961;48.194;16.370;2023-05-07T07:45:04;59.33;;;21.30;;
3891;SDS011;1961;48.194;16.370;2023-05-07T07:47:30;58.27;;;21.60;;
3891;SDS011;1961;48.194;16.370;2023-05-07T07:49:56;60.30;;;22.30;;
3891;SDS011;1961;48.194;16.370;2023-05-07T07:52:22;59.43;;;21.33;;
3891;SDS011;1961;48.194;16.370;2023-05-07T07:54:48;61.37;;;22.87;;
3891;SDS011;1961;48.194;16.370;2023-05-07T07:57:15;58.13;;;21.87;;
3891;SDS011;1961;48.194;16.370;2023-05-07T07:59:41;60.53;;;22.87;;
3891;SDS011;1961;48.194;16.370;2023-05-07T08:02:08;60.23;;;22.07;;
3891;SDS011;1961;48.194;16.370;2023-05-07T08:04:35;61.17;;;22.50;;
3891;SDS011;1961;48.194;16.370;2023-05-07T08:07:03;71.00;;;26.13;;
3891;SDS011;1961;48.194;16.370;2023-05-07T08:09:29;59.27;;;21.10;;
3891;SDS011;1961;48.194;16.370;2023-05-07T08:11:55;61.37;;;22.10;;
3891;SDS011;1961;48.194;16.370;2023-05-07T08:14:22;61.37;;;22.30;;
3891;SDS011;1961;48.194;16.370;2023-05-07T08:16:48;58.60;;;21.40;;
3891;SDS011;1961;48.194;16.370;2023-05-07T08:19:14;59.87;;;21.03;;
3891;SDS011;1961;48.194;16.370;2023-05-07T08:21:40;60.10;;;21.00;;
3891;SDS011;1961;48.194;16.370;2023-05-07T08:24:06;61.73;;;21.90;;
3891;SDS011;1961;48.194;16.370;2023-05-07T08:26:33;61.30;;;21.70;;
3891;SDS011;1961;48.194;16.370;2023-05-07T08:29:01;55.70;;;17.93;;
3891;SDS011;1961;48.194;16.370;2023-05-07T08:31:27;56.37;;;18.57;;
3891;SDS011;1961;48.194;16.370;2023-05-07T08:33:53;57.37;;;20.00;;
3891;SDS011;1961;48.194;16.370;2023-05-07T08:36:19;56.27;;;19.50;;
3891;SDS011;1961;48.194;16.370;2023-05-07T08:38:45;53.80;;;18.50;;
3891;SDS011;1961;48.194;16.370;2023-05-07T08:41:11;54.00;;;16.97;;
3891;SDS011;1961;48.194;16.370;2023-05-07T08:43:38;55.83;;;18.33;;
3891;SDS011;1961;48.194;16.370;2023-05-07T08:46:07;57.37;;;18.63;;
3891;SDS011;1961;48.194;16.370;2023-05-07T08:48:34;59.40;;;18.60;;
3891;SDS011;1961;48.194;16.370;2023-05-07T08:51:01;55.67;;;19.10;;
3891;SDS011;1961;48.194;16.370;2023-05-07T08:53:27;55.83;;;19.87;;
3891;SDS011;1961;48.194;16.370;2023-05-07T08:55:53;57.70;;;18.67;;
3891;SDS011;1961;48.194;16.370;2023-05-07T08:58:19;58.40;;;19.43;;
3891;SDS011;1961;48.194;16.370;2023-05-07T09:00:46;55.30;;;16.53;;
3891;SDS011;1961;48.194;16.370;2023-05-07T09:03:12;56.37;;;19.30;;
3891;SDS011;1961;48.194;16.370;2023-05-07T09:05:39;54.10;;;16.50;;
3891;SDS011;1961;48.194;16.370;2023-05-07T09:08:06;52.17;;;14.97;;
3891;SDS011;1961;48.194;16.370;2023-05-07T09:10:33;52.33;;;14.97;;
3891;SDS011;1961;48.194;16.370;2023-05-07T09:13:00;55.83;;;16.00;;
3891;SDS011;1961;48.194;16.370;2023-05-07T09:15:26;54.37;;;17.60;;
3891;SDS011;1961;48.194;16.370;2023-05-07T09:17:52;52.47;;;16.67;;
3891;SDS011;1961;48.194;16.370;2023-05-07T09:20:18;55.27;;;17.20;;
3891;SDS011;1961;48.194;16.370;2023-05-07T09:22:45;55.97;;;17.37;;
3891;SDS011;1961;48.194;16.370;2023-05-07T09:25:11;51.70;;;15.90;;
3891;SDS011;1961;48.194;16.370;2023-05-07T09:27:37;52.67;;;15.67;;
3891;SDS011;1961;48.194;16.370;2023-05-07T09:30:04;52.97;;;16.07;;
3891;SDS011;1961;48.194;16.370;2023-05-07T09:32:34;53.60;;;15.70;;
3891;SDS011;1961;48.194;16.370;2023-05-07T09:35:01;53.50;;;17.27;;
3891;SDS011;1961;48.194;16.370;2023-05-07T09:37:28;52.60;;;15.80;;
3891;SDS011;1961;48.194;16.370;2023-05-07T09:39:56;63.27;;;17.80;;
3891;SDS011;1961;48.194;16.370;2023-05-07T09:42:23;53.13;;;15.17;;
3891;SDS011;1961;48.194;16.370;2023-05-07T09:44:51;52.00;;;15.57;;
3891;SDS011;1961;48.194;16.370;2023-05-07T09:47:20;52.33;;;15.90;;
3891;SDS011;1961;48.194;16.370;2023-05-07T09:49:49;51.67;;;15.80;;
3891;SDS011;1961;48.194;16.370;2023-05-07T09:52:15;51.20;;;14.90;;
3891;SDS011;1961;48.194;16.370;2023-05-07T09:54:42;52.83;;;15.90;;
3891;SDS011;1961;48.194;16.370;2023-05-07T09:57:10;51.67;;;15.50;;
3891;SDS011;1961;48.194;16.370;2023-05-07T09:59:40;51.47;;;14.70;;
3891;SDS011;1961;48.194;16.370;2023-05-07T10:02:08;54.37;;;15.80;;
3891;SDS011;1961;48.194;16.370;2023-05-07T10:04:37;51.60;;;15.37;;
3891;SDS011;1961;48.194;16.370;2023-05-07T10:07:04;51.80;;;15.73;;
3891;SDS011;1961;48.194;16.370;2023-05-07T10:09:31;52.40;;;15.67;;
3891;SDS011;1961;48.194;16.370;2023-05-07T10:11:57;51.70;;;16.13;;
3891;SDS011;1961;48.194;16.370;2023-05-07T10:14:24;51.30;;;15.07;;
3891;SDS011;1961;48.194;16.370;2023-05-07T10:16:51;52.00;;;16.20;;
3891;SDS011;1961;48.194;16.370;2023-05-07T10:19:19;51.47;;;14.97;;
3891;SDS011;1961;48.194;16.370;2023-05-07T10:21:55;50.63;;;14.57;;
3891;SDS011;1961;48.194;16.370;2023-05-07T10:24:25;52.83;;;16.23;;
3891;SDS011;1961;48.194;16.370;2023-05-07T10:26:52;54.27;;;16.80;;
3891;SDS011;1961;48.194;16.370;2023-05-07T10:29:29;55.57;;;17.47;;
3891;SDS011;1961;48.194;16.370;2023-05-07T10:34:43;51.97;;;15.57;;
3891;SDS011;1961;48.194;16.370;2023-05-07T10:37:10;51.90;;;15.53;;
3891;SDS011;1961;48.194;16.370;2023-05-07T10:39:37;50.17;;;14.53;;
3891;SDS011;1961;48.194;16.370;2023-05-07T10:42:10;52.60;;;15.90;;
3891;SDS011;1961;48.194;16.370;2023-05-07T10:44:36;53.17;;;16.03;;
3891;SDS011;1961;48.194;16.370;2023-05-07T10:47:13;54.40;;;16.10;;
3891;SDS011;1961;48.194;16.370;2023-05-07T10:52:18;52.63;;;16.03;;
3891;SDS011;1961;48.194;16.370;2023-05-07T10:54:45;55.67;;;15.57;;
3891;SDS011;1961;48.194;16.370;2023-05-07T10:59:56;51.37;;;15.80;;
3891;SDS011;1961;48.194;16.370;2023-05-07T11:02:22;52.50;;;16.10;;
3891;SDS011;1961;48.194;16.370;2023-05-07T11:07:33;52.57;;;15.20;;
3891;SDS011;1961;48.194;16.370;2023-05-07T11:10:00;52.13;;;15.00;;
3891;SDS011;1961;48.194;16.370;2023-05-07T11:15:12;52.03;;;15.23;;
3891;SDS011;1961;48.194;16.370;2023-05-07T11:17:53;52.27;;;15.63;;
3891;SDS011;1961;48.194;16.370;2023-05-07T11:20:20;51.40;;;15.63;;
3891;SDS011;1961;48.194;16.370;2023-05-07T11:22:47;50.60;;;13.90;;
3891;SDS011;1961;48.194;16.370;2023-05-07T11:25:19;51.03;;;14.23;;
3891;SDS011;1961;48.194;16.370;2023-05-07T11:27:45;51.00;;;15.20;;
3891;SDS011;1961;48.194;16.370;2023-05-07T11:30:18;52.60;;;15.13;;
3891;SDS011;1961;48.194;16.370;2023-05-07T11:32:46;51.53;;;14.40;;
3891;SDS011;1961;48.194;16.370;2023-05-07T11:35:12;51.70;;;13.27;;
3891;SDS011;1961;48.194;16.370;2023-05-07T11:37:40;55.33;;;15.50;;
3891;SDS011;1961;48.194;16.370;2023-05-07T11:40:07;50.83;;;13.80;;
3891;SDS011;1961;48.194;16.370;2023-05-07T11:42:36;49.30;;;13.90;;
3891;SDS011;1961;48.194;16.370;2023-05-07T11:45:03;51.23;;;13.93;;
3891;SDS011;1961;48.194;16.370;2023-05-07T11:47:31;48.87;;;12.13;;
3891;SDS011;1961;48.194;16.370;2023-05-07T11:49:57;50.30;;;13.37;;
3891;SDS011;1961;48.194;16.370;2023-05-07T11:52:27;50.33;;;13.50;;
3891;SDS011;1961;48.194;16.370;2023-05-07T11:54:58;51.10;;;14.20;;
3891;SDS011;1961;48.194;16.370;2023-05-07T11:57:25;48.70;;;13.33;;
3891;SDS011;1961;48.194;16.370;2023-05-07T11:59:58;49.00;;;12.70;;
3891;SDS011;1961;48.194;16.370;2023-05-07T12:02:26;49.70;;;12.93;;
3891;SDS011;1961;48.194;16.370;2023-05-07T12:04:53;47.27;;;12.30;;
3891;SDS011;1961;48.194;16.370;2023-05-07T12:07:20;50.77;;;14.97;;
3891;SDS011;1961;48.194;16.370;2023-05-07T12:09:46;48.47;;;12.80;;
3891;SDS011;1961;48.194;16.370;2023-05-07T12:12:13;48.17;;;12.50;;
3891;SDS011;1961;48.194;16.370;2023-05-07T12:14:43;48.70;;;12.70;;
3891;SDS011;1961;48.194;16.370;2023-05-07T12:17:10;52.80;;;12.37;;
3891;SDS011;1961;48.194;16.370;2023-05-07T12:19:38;50.40;;;13.50;;
3891;SDS011;1961;48.194;16.370;2023-05-07T12:22:05;48.93;;;12.57;;
3891;SDS011;1961;48.194;16.370;2023-05-07T12:24:49;53.10;;;13.77;;
3891;SDS011;1961;48.194;16.370;2023-05-07T12:27:16;50.80;;;13.07;;
3891;SDS011;1961;48.194;16.370;2023-05-07T12:29:49;49.23;;;12.33;;
3891;SDS011;1961;48.194;16.370;2023-05-07T12:32:20;48.73;;;11.77;;
3891;SDS011;1961;48.194;16.370;2023-05-07T12:34:47;50.30;;;12.93;;
3891;SDS011;1961;48.194;16.370;2023-05-07T12:37:15;48.33;;;12.33;;
3891;SDS011;1961;48.194;16.370;2023-05-07T12:39:47;49.07;;;12.33;;
3891;SDS011;1961;48.194;16.370;2023-05-07T12:42:18;51.00;;;12.50;;
3891;SDS011;1961;48.194;16.370;2023-05-07T12:44:50;47.67;;;12.00;;
3891;SDS011;1961;48.194;16.370;2023-05-07T12:47:17;50.90;;;13.10;;
3891;SDS011;1961;48.194;16.370;2023-05-07T12:49:43;50.17;;;11.93;;
3891;SDS011;1961;48.194;16.370;2023-05-07T12:52:11;49.63;;;13.00;;
3891;SDS011;1961;48.194;16.370;2023-05-07T12:54:38;49.07;;;12.97;;
3891;SDS011;1961;48.194;16.370;2023-05-07T12:57:05;48.80;;;13.33;;
3891;SDS011;1961;48.194;16.370;2023-05-07T12:59:32;50.10;;;13.20;;
3891;SDS011;1961;48.194;16.370;2023-05-07T13:01:58;46.97;;;11.87;;
3891;SDS011;1961;48.194;16.370;2023-05-07T13:04:25;48.57;;;11.97;;
3891;SDS011;1961;48.194;16.370;2023-05-07T13:06:51;47.40;;;11.50;;
3891;SDS011;1961;48.194;16.370;2023-05-07T13:09:17;47.87;;;10.93;;
3891;SDS011;1961;48.194;16.370;2023-05-07T13:11:43;46.80;;;11.40;;
3891;SDS011;1961;48.194;16.370;2023-05-07T13:14:09;48.13;;;11.00;;
3891;SDS011;1961;48.194;16.370;2023-05-07T13:16:36;47.97;;;11.10;;
3891;SDS011;1961;48.194;16.370;2023-05-07T13:19:02;47.67;;;10.77;;
3891;SDS011;1961;48.194;16.370;2023-05-07T13:21:28;46.70;;;10.60;;
3891;SDS011;1961;48.194;16.370;2023-05-07T13:23:55;47.20;;;10.90;;
3891;SDS011;1961;48.194;16.370;2023-05-07T13:26:22;44.80;;;9.87;;
3891;SDS011;1961;48.194;16.370;2023-05-07T13:28:49;45.23;;;10.00;;
3891;SDS011;1961;48.194;16.370;2023-05-07T13:31:19;46.20;;;10.07;;
3891;SDS011;1961;48.194;16.370;2023-05-07T13:33:46;45.30;;;9.43;;
3891;SDS011;1961;48.194;16.370;2023-05-07T13:36:13;45.57;;;10.47;;
3891;SDS011;1961;48.194;16.370;2023-05-07T13:38:40;45.03;;;10.07;;
3891;SDS011;1961;48.194;16.370;2023-05-07T13:41:07;45.90;;;10.77;;
3891;SDS011;1961;48.194;16.370;2023-05-07T13:43:33;46.17;;;10.53;;
3891;SDS011;1961;48.194;16.370;2023-05-07T13:46:00;46.90;;;10.90;;
3891;SDS011;1961;48.194;16.370;2023-05-07T13:48:26;46.67;;;10.60;;
3891;SDS011;1961;48.194;16.370;2023-05-07T13:50:53;46.47;;;11.27;;
3891;SDS011;1961;48.194;16.370;2023-05-07T13:53:19;47.67;;;10.43;;
3891;SDS011;1961;48.194;16.370;2023-05-07T13:55:46;45.20;;;10.13;;
3891;SDS011;1961;48.194;16.370;2023-05-07T13:58:12;46.03;;;9.67;;
3891;SDS011;1961;48.194;16.370;2023-05-07T14:00:38;118.40;;;52.23;;
3891;SDS011;1961;48.194;16.370;2023-05-07T14:03:04;45.60;;;10.07;;
3891;SDS011;1961;48.194;16.370;2023-05-07T14:05:31;46.50;;;9.03;;
3891;SDS011;1961;48.194;16.370;2023-05-07T14:07:57;45.93;;;9.70;;
3891;SDS011;1961;48.194;16.370;2023-05-07T14:10:24;46.50;;;10.70;;
3891;SDS011;1961;48.194;16.370;2023-05-07T14:12:50;45.60;;;9.93;;
3891;SDS011;1961;48.194;16.370;2023-05-07T14:15:18;45.07;;;9.87;;
3891;SDS011;1961;48.194;16.370;2023-05-07T14:17:44;44.97;;;8.87;;
3891;SDS011;1961;48.194;16.370;2023-05-07T14:20:11;45.80;;;10.00;;
3891;SDS011;1961;48.194;16.370;2023-05-07T14:22:38;46.07;;;9.47;;
3891;SDS011;1961;48.194;16.370;2023-05-07T14:25:04;45.37;;;9.13;;
3891;SDS011;1961;48.194;16.370;2023-05-07T14:27:31;45.23;;;9.13;;
3891;SDS011;1961;48.194;16.370;2023-05-07T14:29:57;45.00;;;9.27;;
3891;SDS011;1961;48.194;16.370;2023-05-07T14:32:23;44.40;;;9.30;;
3891;SDS011;1961;48.194;16.370;2023-05-07T14:34:49;46.60;;;9.53;;
3891;SDS011;1961;48.194;16.370;2023-05-07T14:37:19;45.67;;;8.77;;
3891;SDS011;1961;48.194;16.370;2023-05-07T14:39:45;50.30;;;8.87;;
3891;SDS011;1961;48.194;16.370;2023-05-07T14:42:11;44.97;;;8.07;;
3891;SDS011;1961;48.194;16.370;2023-05-07T14:44:37;43.00;;;8.37;;
3891;SDS011;1961;48.194;16.370;2023-05-07T14:47:06;43.00;;;7.77;;
3891;SDS011;1961;48.194;16.370;2023-05-07T14:49:33;44.40;;;8.17;;